createdAt,value
2022-07-29T00:01:48.396Z,101201.94
2022-07-29T00:04:17.206Z,101193.81
2022-07-29T00:06:46.140Z,101193.81
2022-07-29T00:09:14.735Z,101194.66
2022-07-29T00:11:44.255Z,101186.56
2022-07-29T00:14:13.078Z,101186.38
2022-07-29T00:16:42.040Z,101180.50
2022-07-29T00:19:10.577Z,101181.22
2022-07-29T00:21:39.853Z,101173.09
2022-07-29T00:24:08.526Z,101176.97
2022-07-29T00:26:37.098Z,101166.66
2022-07-29T00:29:32.890Z,101178.84
2022-07-29T00:31:54.787Z,101171.44
2022-07-29T00:34:41.538Z,101173.44
2022-07-29T00:37:10.086Z,101170.91
2022-07-29T00:39:38.755Z,101170.06
2022-07-29T00:42:07.434Z,101168.38
2022-07-29T00:44:40.980Z,101173.09
2022-07-29T00:47:11.190Z,101180.50
2022-07-29T00:49:42.402Z,101169.84
2022-07-29T00:52:12.543Z,101170.03
2022-07-29T00:54:44.070Z,101167.31
2022-07-29T00:57:13.527Z,101161.56
2022-07-29T00:59:42.438Z,101167.13
2022-07-29T01:02:11.175Z,101164.56
2022-07-29T01:04:40.011Z,101162.88
2022-07-29T01:07:09.303Z,101156.09
2022-07-29T01:12:19.437Z,101164.53
2022-07-29T01:17:55.548Z,101165.53
2022-07-29T01:20:31.537Z,101160.59
2022-07-29T01:23:11.395Z,101160.78
2022-07-29T01:26:20.502Z,101157.22
2022-07-29T01:29:08.354Z,101170.19
2022-07-29T01:32:01.344Z,101171.66
2022-07-29T01:34:50.869Z,101175.81
2022-07-29T01:37:32.249Z,101181.84
2022-07-29T01:40:04.010Z,101178.06
2022-07-29T01:42:45.207Z,101182.78
2022-07-29T01:45:21.219Z,101181.41
2022-07-29T01:47:56.841Z,101183.56
2022-07-29T01:50:32.443Z,101181.16
2022-07-29T01:53:08.807Z,101182.19
2022-07-29T01:55:42.353Z,101179.09
2022-07-29T01:58:13.189Z,101182.28
2022-07-29T02:00:43.656Z,101175.47
2022-07-29T02:03:14.622Z,101179.16
2022-07-29T02:05:47.414Z,101181.19
2022-07-29T02:08:17.833Z,101178.66
2022-07-29T02:10:48.726Z,101178.09
2022-07-29T02:13:19.029Z,101183.66
2022-07-29T02:15:48.856Z,101188.19
2022-07-29T02:18:20.821Z,101190.97
2022-07-29T02:20:56.739Z,101193.81
2022-07-29T02:23:26.277Z,101203.22
2022-07-29T02:25:58.376Z,101196.41
2022-07-29T02:28:29.632Z,101207.97
2022-07-29T02:31:04.613Z,101206.38
2022-07-29T02:33:34.314Z,101206.78
2022-07-29T02:36:05.122Z,101208.66
2022-07-29T02:38:57.637Z,101209.53
2022-07-29T02:41:31.815Z,101217.09
2022-07-29T02:44:07.283Z,101218.38
2022-07-29T02:46:38.953Z,101218.28
2022-07-29T02:49:11.659Z,101218.88
2022-07-29T02:51:56.299Z,101225.84
2022-07-29T02:54:41.687Z,101227.84
2022-07-29T02:57:25.001Z,101230.53
2022-07-29T02:59:57.286Z,101229.72
2022-07-29T03:02:28.004Z,101227.88
2022-07-29T03:05:00.119Z,101228.59
2022-07-29T03:07:29.966Z,101234.69
2022-07-29T03:10:02.291Z,101239.81
2022-07-29T03:12:32.424Z,101240.50
2022-07-29T03:15:01.670Z,101247.16
2022-07-29T03:17:30.181Z,101246.75
2022-07-29T03:19:58.887Z,101252.69
2022-07-29T03:22:28.262Z,101254.81
2022-07-29T03:24:56.871Z,101259.91
2022-07-29T03:27:25.418Z,101249.97
2022-07-29T03:29:53.694Z,101259.16
2022-07-29T03:32:25.087Z,101259.16
2022-07-29T03:34:53.648Z,101255.72
2022-07-29T03:37:22.152Z,101256.00
2022-07-29T03:39:53.307Z,101258.41
2022-07-29T03:42:25.479Z,101259.94
2022-07-29T03:44:54.903Z,101256.09
2022-07-29T03:47:39.331Z,101259.06
2022-07-29T03:50:17.627Z,101262.44
2022-07-29T03:52:46.137Z,101267.50
2022-07-29T03:55:14.733Z,101258.72
2022-07-29T03:57:43.833Z,101265.81
2022-07-29T04:00:12.969Z,101264.81
2022-07-29T04:02:42.117Z,101260.44
2022-07-29T04:05:15.677Z,101266.78
2022-07-29T04:07:50.984Z,101251.22
2022-07-29T04:10:30.299Z,101264.91
2022-07-29T04:13:01.604Z,101272.53
2022-07-29T04:15:31.330Z,101263.75
2022-07-29T04:18:01.200Z,101265.97
2022-07-29T04:20:29.458Z,101270.91
2022-07-29T04:22:58.169Z,101270.19
2022-07-29T04:25:26.406Z,101267.63
2022-07-29T04:28:03.582Z,101278.78
2022-07-29T04:30:34.167Z,101273.34
2022-07-29T04:33:04.423Z,101277.38
2022-07-29T04:35:37.940Z,101277.78
2022-07-29T04:38:15.597Z,101283.28
2022-07-29T04:40:49.761Z,101290.63
2022-07-29T04:43:23.318Z,101289.88
2022-07-29T04:45:52.223Z,101288.22
2022-07-29T04:48:28.472Z,101293.69
2022-07-29T04:50:58.710Z,101293.38
2022-07-29T04:53:27.489Z,101299.00
2022-07-29T04:55:55.868Z,101297.28
2022-07-29T04:58:25.396Z,101299.13
2022-07-29T05:00:53.687Z,101302.31
2022-07-29T05:03:22.081Z,101304.69
2022-07-29T05:05:50.537Z,101304.47
2022-07-29T05:08:19.433Z,101303.88
2022-07-29T05:10:48.116Z,101302.03
2022-07-29T05:13:18.258Z,101304.59
2022-07-29T05:15:46.554Z,101310.22
2022-07-29T05:18:15.943Z,101306.22
2022-07-29T05:20:44.348Z,101312.81
2022-07-29T05:23:14.609Z,101305.00
2022-07-29T05:25:44.572Z,101305.28
2022-07-29T05:28:13.834Z,101313.56
2022-07-29T05:30:42.660Z,101318.09
2022-07-29T05:33:35.978Z,101322.59
2022-07-29T05:36:00.844Z,101320.03
2022-07-29T05:38:29.647Z,101324.06
2022-07-29T05:41:00.692Z,101328.97
2022-07-29T05:43:30.252Z,101322.53
2022-07-29T05:45:59.381Z,101326.78
2022-07-29T05:48:27.993Z,101322.75
2022-07-29T05:50:57.089Z,101319.47
2022-07-29T05:53:25.633Z,101317.16
2022-07-29T05:55:54.403Z,101316.56
2022-07-29T05:58:23.089Z,101309.09
2022-07-29T06:00:51.698Z,101307.91
2022-07-29T06:03:20.236Z,101306.06
2022-07-29T06:05:48.617Z,101309.72
2022-07-29T06:08:17.131Z,101305.72
2022-07-29T06:10:45.518Z,101308.78
2022-07-29T06:13:14.625Z,101310.69
2022-07-29T06:15:43.221Z,101313.25
2022-07-29T06:18:12.575Z,101303.28
2022-07-29T06:20:42.517Z,101307.78
2022-07-29T06:23:12.037Z,101307.78
2022-07-29T06:25:42.789Z,101303.41
2022-07-29T06:28:11.761Z,101313.38
2022-07-29T06:30:41.221Z,101307.31
2022-07-29T06:33:10.445Z,101313.63
2022-07-29T06:35:42.631Z,101312.78
2022-07-29T06:38:33.838Z,101312.91
2022-07-29T06:41:07.735Z,101310.34
2022-07-29T06:43:50.207Z,101314.84
2022-07-29T06:46:22.091Z,101308.03
2022-07-29T06:48:51.591Z,101314.63
2022-07-29T06:51:22.510Z,101314.75
2022-07-29T06:53:59.448Z,101319.22
2022-07-29T06:56:32.555Z,101313.03
2022-07-29T06:59:07.382Z,101317.53
2022-07-29T07:01:35.903Z,101326.56
2022-07-29T07:04:05.511Z,101325.69
2022-07-29T07:06:33.901Z,101321.31
2022-07-29T07:09:05.406Z,101323.00
2022-07-29T07:11:34.480Z,101331.16
2022-07-29T07:14:05.565Z,101327.75
2022-07-29T07:16:34.263Z,101336.66
2022-07-29T07:19:02.941Z,101330.56
2022-07-29T07:21:31.956Z,101333.25
2022-07-29T07:24:01.682Z,101337.00
2022-07-29T07:26:30.632Z,101335.53
2022-07-29T07:28:59.068Z,101339.31
2022-07-29T07:31:27.530Z,101333.09
2022-07-29T07:33:55.852Z,101329.59
2022-07-29T07:36:25.039Z,101328.00
2022-07-29T07:38:53.294Z,101333.59
2022-07-29T07:41:24.717Z,101334.56
2022-07-29T07:43:53.038Z,101330.41
2022-07-29T07:46:21.424Z,101331.53
2022-07-29T07:48:53.191Z,101330.66
2022-07-29T07:51:22.612Z,101334.91
2022-07-29T07:53:54.008Z,101326.75
2022-07-29T07:56:23.208Z,101328.47
2022-07-29T07:58:51.688Z,101332.97
2022-07-29T08:01:21.599Z,101318.72
2022-07-29T08:03:50.278Z,101331.16
2022-07-29T08:06:19.304Z,101324.94
2022-07-29T08:08:47.916Z,101322.25
2022-07-29T08:11:16.667Z,101320.69
2022-07-29T08:13:45.671Z,101317.88
2022-07-29T08:16:14.541Z,101319.69
2022-07-29T08:18:44.479Z,101315.34
2022-07-29T08:21:14.759Z,101308.38
2022-07-29T08:23:58.459Z,101309.47
2022-07-29T08:26:29.239Z,101297.16
2022-07-29T08:28:57.568Z,101308.00
2022-07-29T08:31:25.906Z,101297.41
2022-07-29T08:33:54.390Z,101293.88
2022-07-29T08:36:22.807Z,101295.81
2022-07-29T08:38:51.429Z,101293.13
2022-07-29T08:41:21.237Z,101298.59
2022-07-29T08:43:51.218Z,101303.00
2022-07-29T08:46:20.368Z,101295.94
2022-07-29T08:48:50.155Z,101298.59
2022-07-29T08:51:21.285Z,101302.28
2022-07-29T08:53:52.001Z,101303.00
2022-07-29T08:56:24.299Z,101302.88
2022-07-29T08:58:52.785Z,101300.44
2022-07-29T09:01:36.225Z,101296.81
2022-07-29T09:04:13.634Z,101302.16
2022-07-29T09:06:48.257Z,101296.81
2022-07-29T09:09:16.853Z,101287.06
2022-07-29T09:11:46.144Z,101289.63
2022-07-29T09:14:15.736Z,101291.44
2022-07-29T09:16:53.541Z,101289.63
2022-07-29T09:19:31.121Z,101297.53
2022-07-29T09:22:07.102Z,101295.72
2022-07-29T09:24:49.792Z,101295.59
2022-07-29T09:27:28.553Z,101291.22
2022-07-29T09:30:16.622Z,101295.47
2022-07-29T09:33:03.027Z,101289.25
2022-07-29T09:35:34.436Z,101285.50
2022-07-29T09:38:15.984Z,101288.03
2022-07-29T09:40:57.802Z,101283.66
2022-07-29T09:43:31.800Z,101280.25
2022-07-29T09:46:16.545Z,101277.56
2022-07-29T09:48:45.220Z,101281.22
2022-07-29T09:51:37.621Z,101270.38
2022-07-29T09:54:30.119Z,101270.38
2022-07-29T09:56:58.293Z,101268.94
2022-07-29T09:59:28.443Z,101280.38
2022-07-29T10:01:57.620Z,101281.09
2022-07-29T10:04:26.336Z,101283.78
2022-07-29T10:07:04.731Z,101282.94
2022-07-29T10:09:34.592Z,101279.53
2022-07-29T10:12:15.731Z,101281.22
2022-07-29T10:14:44.647Z,101282.22
2022-07-29T10:17:13.715Z,101281.22
2022-07-29T10:19:42.091Z,101273.31
2022-07-29T10:22:12.229Z,101277.56
2022-07-29T10:24:41.199Z,101283.53
2022-07-29T10:27:11.256Z,101278.16
2022-07-29T10:29:39.751Z,101283.66
2022-07-29T10:32:29.420Z,101284.41
2022-07-29T10:35:03.411Z,101278.41
2022-07-29T10:37:35.999Z,101282.22
2022-07-29T10:40:59.009Z,101283.91
2022-07-29T10:43:42.315Z,101281.22
2022-07-29T10:46:12.942Z,101278.28
2022-07-29T10:49:12.030Z,101278.94
2022-07-29T10:51:53.014Z,101282.44
2022-07-29T10:54:42.279Z,101291.47
2022-07-29T11:00:11.054Z,101287.19
2022-07-29T11:02:44.600Z,101283.66
2022-07-29T11:05:25.369Z,101296.19
2022-07-29T11:08:19.486Z,101289.25
2022-07-29T11:10:50.518Z,101294.72
2022-07-29T11:13:50.022Z,101296.56
2022-07-29T11:16:21.353Z,101293.13
2022-07-29T11:19:14.474Z,101287.69
2022-07-29T11:22:05.167Z,101304.97
2022-07-29T11:24:34.852Z,101288.38
2022-07-29T11:27:11.222Z,101292.66
2022-07-29T11:30:05.613Z,101288.16
2022-07-29T11:32:44.910Z,101281.09
2022-07-29T11:38:28.560Z,101283.03
2022-07-29T11:41:37.935Z,101287.41
2022-07-29T11:44:08.923Z,101283.28
2022-07-29T11:46:51.473Z,101289.25
2022-07-29T11:49:31.665Z,101285.81
2022-07-29T11:52:05.040Z,101278.63
2022-07-29T11:54:38.969Z,101281.22
2022-07-29T12:00:14.465Z,101279.38
2022-07-29T12:02:48.067Z,101285.47
2022-07-29T12:05:36.019Z,101291.69
2022-07-29T12:07:01.567Z,101283.91
2022-07-29T12:07:03.797Z,101277.69
2022-07-29T12:08:15.800Z,101288.78
2022-07-29T12:10:45.671Z,101287.06
2022-07-29T12:13:16.548Z,101290.47
2022-07-29T12:15:53.561Z,101288.78
2022-07-29T12:18:24.153Z,101287.91
2022-07-29T12:21:06.630Z,101283.91
2022-07-29T12:23:35.787Z,101290.72
2022-07-29T12:26:11.056Z,101284.28
2022-07-29T12:28:51.063Z,101283.53
2022-07-29T12:31:42.180Z,101288.16
2022-07-29T12:34:15.274Z,101288.03
2022-07-29T12:36:46.567Z,101279.28
2022-07-29T12:39:17.968Z,101288.53
2022-07-29T12:41:54.201Z,101278.19
2022-07-29T12:44:53.429Z,101284.06
2022-07-29T12:47:26.331Z,101276.75
2022-07-29T12:50:26.171Z,101271.97
2022-07-29T12:52:55.594Z,101278.56
2022-07-29T12:55:53.559Z,101271.97
2022-07-29T12:58:58.014Z,101283.91
2022-07-29T13:05:24.544Z,101286.22
2022-07-29T13:23:03.191Z,101305.31
2022-07-29T13:26:24.752Z,101310.56
2022-07-29T13:28:54.225Z,101312.25
2022-07-29T13:31:23.987Z,101313.13
2022-07-29T13:33:52.464Z,101317.13
2022-07-29T13:36:21.642Z,101316.34
2022-07-29T13:47:32.692Z,101327.41
2022-07-29T13:50:22.629Z,101333.22
2022-07-29T13:52:52.538Z,101329.03
2022-07-29T13:55:21.436Z,101344.13
2022-07-29T14:02:25.753Z,101333.44
2022-07-29T14:05:21.686Z,101340.38
2022-07-29T14:11:26.650Z,101334.28
2022-07-29T14:14:07.556Z,101334.38
2022-07-29T14:16:52.551Z,101336.94
2022-07-29T14:19:20.928Z,101344.13
2022-07-29T14:24:37.365Z,101353.75
2022-07-29T14:25:21.257Z,101351.94
2022-07-29T14:27:55.113Z,101348.06
2022-07-29T14:30:26.925Z,101346.97
2022-07-29T14:32:57.996Z,101345.78
2022-07-29T14:35:26.319Z,101349.94
2022-07-29T14:37:54.920Z,101347.91
2022-07-29T14:40:23.278Z,101347.16
2022-07-29T14:42:51.452Z,101360.75
2022-07-29T14:45:19.845Z,101362.91
2022-07-29T14:47:48.182Z,101373.09
2022-07-29T14:50:16.442Z,101372.47
2022-07-29T14:52:51.515Z,101373.31
2022-07-29T14:55:20.354Z,101367.97
2022-07-29T14:57:49.283Z,101374.16
2022-07-29T15:00:18.220Z,101374.03
2022-07-29T15:03:01.317Z,101376.84
2022-07-29T15:05:31.697Z,101367.97
2022-07-29T15:08:00.815Z,101369.56
2022-07-29T15:10:29.972Z,101379.16
2022-07-29T15:12:58.830Z,101379.94
2022-07-29T15:15:27.641Z,101375.31
2022-07-29T15:17:56.019Z,101375.94
2022-07-29T15:20:27.082Z,101380.19
2022-07-29T15:22:57.584Z,101380.97
2022-07-29T15:25:26.395Z,101366.41
2022-07-29T15:28:01.213Z,101371.28
2022-07-29T15:30:33.270Z,101371.81
2022-07-29T15:33:04.567Z,101367.91
2022-07-29T15:35:33.011Z,101374.75
2022-07-29T15:38:01.942Z,101378.66
2022-07-29T15:40:30.569Z,101389.91
2022-07-29T15:43:02.510Z,101381.41
2022-07-29T15:45:31.645Z,101379.72
2022-07-29T15:48:00.481Z,101388.81
2022-07-29T15:50:28.778Z,101386.53
2022-07-29T15:52:57.024Z,101380.56
2022-07-29T15:55:25.420Z,101384.25
2022-07-29T15:57:57.188Z,101384.28
2022-07-29T16:00:31.158Z,101377.69
2022-07-29T16:03:02.128Z,101373.44
2022-07-29T16:05:30.606Z,101375.28
2022-07-29T16:08:00.594Z,101372.38
2022-07-29T16:10:31.724Z,101375.66
2022-07-29T16:13:02.056Z,101388.16
2022-07-29T16:15:34.947Z,101383.16
2022-07-29T16:18:06.022Z,101385.22
2022-07-29T16:20:34.290Z,101381.53
2022-07-29T16:23:02.630Z,101372.66
2022-07-29T16:25:58.779Z,101379.94
2022-07-29T16:28:22.393Z,101381.09
2022-07-29T16:30:52.064Z,101371.00
2022-07-29T16:33:20.638Z,101376.91
2022-07-29T16:35:48.920Z,101378.81
2022-07-29T16:38:18.013Z,101377.59
2022-07-29T16:40:46.406Z,101368.31
2022-07-29T16:43:15.041Z,101366.34
2022-07-29T16:45:45.989Z,101373.50
2022-07-29T16:48:18.749Z,101370.91
2022-07-29T16:50:52.839Z,101366.56
2022-07-29T16:53:21.163Z,101360.03
2022-07-29T16:55:49.492Z,101362.28
2022-07-29T16:58:22.185Z,101362.09
2022-07-29T17:00:50.597Z,101363.34
2022-07-29T17:03:23.437Z,101357.47
2022-07-29T17:05:53.982Z,101363.72
2022-07-29T17:08:23.639Z,101357.94
2022-07-29T17:10:52.156Z,101364.91
2022-07-29T17:13:20.638Z,101361.63
2022-07-29T17:16:02.892Z,101362.72
2022-07-29T17:18:31.273Z,101357.34
2022-07-29T17:21:01.524Z,101361.75
2022-07-29T17:23:31.777Z,101358.09
2022-07-29T17:26:00.067Z,101363.47
2022-07-29T17:28:28.289Z,101355.81
2022-07-29T17:30:56.669Z,101363.09
2022-07-29T17:33:25.202Z,101359.03
2022-07-29T17:36:11.992Z,101353.38
2022-07-29T17:38:47.085Z,101361.31
2022-07-29T17:41:16.209Z,101363.84
2022-07-29T17:43:44.591Z,101361.59
2022-07-29T17:46:13.089Z,101372.09
2022-07-29T17:48:44.136Z,101366.13
2022-07-29T17:51:12.207Z,101359.31
2022-07-29T17:53:46.257Z,101362.16
2022-07-29T17:56:14.954Z,101363.25
2022-07-29T17:58:48.260Z,101358.47
2022-07-29T18:01:17.422Z,101366.13
2022-07-29T18:03:46.391Z,101363.31
2022-07-29T18:06:15.015Z,101354.41
2022-07-29T18:08:48.323Z,101348.56
2022-07-29T18:11:17.239Z,101358.91
2022-07-29T18:13:45.526Z,101364.78
2022-07-29T18:16:13.942Z,101360.97
2022-07-29T18:18:42.467Z,101357.53
2022-07-29T18:21:10.941Z,101358.53
2022-07-29T18:23:41.887Z,101348.88
2022-07-29T18:26:11.063Z,101357.81
2022-07-29T18:28:39.381Z,101353.94
2022-07-29T18:31:08.420Z,101349.69
2022-07-29T18:33:39.794Z,101348.28
2022-07-29T18:36:11.659Z,101350.22
2022-07-29T18:38:42.208Z,101337.50
2022-07-29T18:41:10.579Z,101345.56
2022-07-29T18:43:39.049Z,101353.81
2022-07-29T18:46:07.639Z,101344.63
2022-07-29T18:48:36.051Z,101347.16
2022-07-29T18:51:09.371Z,101341.34
2022-07-29T18:53:38.504Z,101329.19
2022-07-29T18:56:06.905Z,101334.00
2022-07-29T18:58:35.261Z,101332.00
2022-07-29T19:01:03.639Z,101336.09
2022-07-29T19:03:35.319Z,101323.38
2022-07-29T19:06:03.674Z,101319.41
2022-07-29T19:08:35.868Z,101316.28
2022-07-29T19:11:04.319Z,101310.19
2022-07-29T19:13:44.948Z,101300.84
2022-07-29T19:16:19.416Z,101306.81
2022-07-29T19:18:48.295Z,101314.44
2022-07-29T19:21:16.546Z,101301.28
2022-07-29T19:24:06.425Z,101312.59
2022-07-29T19:26:47.668Z,101301.69
2022-07-29T19:29:19.010Z,101306.81
2022-07-29T19:31:50.310Z,101301.72
2022-07-29T19:34:18.504Z,101303.25
2022-07-29T19:36:49.736Z,101304.09
2022-07-29T19:39:47.784Z,101296.47
2022-07-29T19:45:00.894Z,101287.94
2022-07-29T19:50:34.271Z,101293.75
2022-07-29T19:54:19.218Z,101296.88
2022-07-29T20:02:19.618Z,101283.00
2022-07-29T20:04:48.235Z,101282.13
2022-07-29T20:17:01.298Z,101281.88
2022-07-29T20:20:18.269Z,101277.50
2022-07-29T20:25:54.609Z,101279.31
2022-07-29T20:29:11.534Z,101276.03
2022-07-29T20:36:21.305Z,101267.25
2022-07-29T20:38:54.669Z,101265.84
2022-07-29T20:41:47.751Z,101265.28
2022-07-29T20:44:21.823Z,101262.03
2022-07-29T20:46:50.199Z,101250.16
2022-07-29T20:49:21.677Z,101245.47
2022-07-29T20:51:50.148Z,101249.44
2022-07-29T20:57:03.193Z,101238.53
2022-07-29T21:02:52.579Z,101231.16
2022-07-29T21:05:21.018Z,101235.81
2022-07-29T21:07:49.322Z,101236.84
2022-07-29T21:10:20.700Z,101242.22
2022-07-29T21:12:53.792Z,101233.28
2022-07-29T21:15:22.971Z,101230.59
2022-07-29T21:17:56.152Z,101220.53
2022-07-29T21:20:28.144Z,101227.59
2022-07-29T21:23:01.500Z,101221.09
2022-07-29T21:29:20.230Z,101229.31
2022-07-29T21:32:29.713Z,101227.59
2022-07-29T21:36:02.063Z,101224.75
2022-07-29T21:38:50.667Z,101227.91
2022-07-29T21:41:20.963Z,101219.81
2022-07-29T21:44:22.635Z,101224.22
2022-07-29T21:47:19.590Z,101217.56
2022-07-29T22:27:29.747Z,101172.03
